sensor_id;sensor_type;location;lat;lon;timestamp;P1;durP1;ratioP1;P2;durP2;ratioP2
43891;SDS011;29555;45.350;5.578;2024-02-15T00:01:08;5.63;;;3.22;;
43891;SDS011;29555;45.350;5.578;2024-02-15T00:03:33;6.03;;;3.28;;
43891;SDS011;29555;45.350;5.578;2024-02-15T00:06:00;6.35;;;3.30;;
43891;SDS011;29555;45.350;5.578;2024-02-15T00:08:26;11.00;;;5.45;;
43891;SDS011;29555;45.350;5.578;2024-02-15T00:10:54;7.15;;;4.45;;
43891;SDS011;29555;45.350;5.578;2024-02-15T00:13:19;9.30;;;5.47;;
43891;SDS011;29555;45.350;5.578;2024-02-15T00:15:45;13.88;;;5.68;;
43891;SDS011;29555;45.350;5.578;2024-02-15T00:18:13;5.57;;;4.28;;
43891;SDS011;29555;45.350;5.578;2024-02-15T00:20:39;7.82;;;2.80;;
43891;SDS011;29555;45.350;5.578;2024-02-15T00:23:04;14.60;;;5.85;;
43891;SDS011;29555;45.350;5.578;2024-02-15T00:25:31;14.32;;;5.95;;
43891;SDS011;29555;45.350;5.578;2024-02-15T00:27:57;18.00;;;8.43;;
43891;SDS011;29555;45.350;5.578;2024-02-15T00:30:22;16.98;;;10.10;;
43891;SDS011;29555;45.350;5.578;2024-02-15T00:32:48;20.70;;;9.95;;
43891;SDS011;29555;45.350;5.578;2024-02-15T00:35:13;27.67;;;13.77;;
43891;SDS011;29555;45.350;5.578;2024-02-15T00:37:42;40.90;;;20.05;;
43891;SDS011;29555;45.350;5.578;2024-02-15T00:40:07;31.65;;;16.40;;
43891;SDS011;29555;45.350;5.578;2024-02-15T00:42:33;36.22;;;16.30;;
43891;SDS011;29555;45.350;5.578;2024-02-15T00:44:59;18.23;;;8.65;;
43891;SDS011;29555;45.350;5.578;2024-02-15T00:47:24;8.15;;;4.55;;
43891;SDS011;29555;45.350;5.578;2024-02-15T00:49:50;6.65;;;3.83;;
43891;SDS011;29555;45.350;5.578;2024-02-15T00:52:16;6.68;;;5.07;;
43891;SDS011;29555;45.350;5.578;2024-02-15T00:54:45;8.80;;;3.90;;
43891;SDS011;29555;45.350;5.578;2024-02-15T00:57:11;7.53;;;4.22;;
43891;SDS011;29555;45.350;5.578;2024-02-15T00:59:36;7.97;;;4.38;;
43891;SDS011;29555;45.350;5.578;2024-02-15T01:02:02;10.82;;;4.60;;
43891;SDS011;29555;45.350;5.578;2024-02-15T01:04:28;6.68;;;4.75;;
43891;SDS011;29555;45.350;5.578;2024-02-15T01:06:54;8.23;;;3.90;;
43891;SDS011;29555;45.350;5.578;2024-02-15T01:09:21;5.78;;;3.65;;
43891;SDS011;29555;45.350;5.578;2024-02-15T01:11:47;10.93;;;4.97;;
43891;SDS011;29555;45.350;5.578;2024-02-15T01:14:12;5.32;;;4.10;;
43891;SDS011;29555;45.350;5.578;2024-02-15T01:16:38;4.97;;;3.38;;
43891;SDS011;29555;45.350;5.578;2024-02-15T01:19:03;8.82;;;3.55;;
43891;SDS011;29555;45.350;5.578;2024-02-15T01:21:29;6.72;;;3.33;;
43891;SDS011;29555;45.350;5.578;2024-02-15T01:23:55;7.25;;;4.80;;
43891;SDS011;29555;45.350;5.578;2024-02-15T01:26:21;6.57;;;4.60;;
43891;SDS011;29555;45.350;5.578;2024-02-15T01:28:46;8.88;;;3.88;;
43891;SDS011;29555;45.350;5.578;2024-02-15T01:31:11;5.05;;;3.92;;
43891;SDS011;29555;45.350;5.578;2024-02-15T01:33:37;10.07;;;3.78;;
43891;SDS011;29555;45.350;5.578;2024-02-15T01:36:03;4.88;;;3.28;;
43891;SDS011;29555;45.350;5.578;2024-02-15T01:38:29;8.10;;;3.88;;
43891;SDS011;29555;45.350;5.578;2024-02-15T01:40:55;10.85;;;3.88;;
43891;SDS011;29555;45.350;5.578;2024-02-15T01:43:20;6.45;;;3.53;;
43891;SDS011;29555;45.350;5.578;2024-02-15T01:45:45;5.18;;;2.67;;
43891;SDS011;29555;45.350;5.578;2024-02-15T01:48:14;8.88;;;3.50;;
43891;SDS011;29555;45.350;5.578;2024-02-15T01:50:40;5.63;;;2.88;;
43891;SDS011;29555;45.350;5.578;2024-02-15T01:53:07;4.95;;;3.38;;
43891;SDS011;29555;45.350;5.578;2024-02-15T01:55:33;12.35;;;4.03;;
43891;SDS011;29555;45.350;5.578;2024-02-15T01:58:00;8.45;;;3.17;;
43891;SDS011;29555;45.350;5.578;2024-02-15T02:00:26;3.88;;;2.95;;
43891;SDS011;29555;45.350;5.578;2024-02-15T02:02:51;4.28;;;3.20;;
43891;SDS011;29555;45.350;5.578;2024-02-15T02:05:19;4.78;;;2.95;;
43891;SDS011;29555;45.350;5.578;2024-02-15T02:07:44;6.13;;;3.38;;
43891;SDS011;29555;45.350;5.578;2024-02-15T02:10:10;5.75;;;2.97;;
43891;SDS011;29555;45.350;5.578;2024-02-15T02:12:37;7.05;;;3.05;;
43891;SDS011;29555;45.350;5.578;2024-02-15T02:15:05;4.10;;;3.25;;
43891;SDS011;29555;45.350;5.578;2024-02-15T02:17:36;2.60;;;1.60;;
43891;SDS011;29555;45.350;5.578;2024-02-15T02:20:01;4.65;;;2.75;;
43891;SDS011;29555;45.350;5.578;2024-02-15T02:22:33;7.22;;;3.17;;
43891;SDS011;29555;45.350;5.578;2024-02-15T02:27:34;5.90;;;3.50;;
43891;SDS011;29555;45.350;5.578;2024-02-15T02:30:02;6.80;;;3.33;;
43891;SDS011;29555;45.350;5.578;2024-02-15T02:32:31;8.18;;;4.13;;
43891;SDS011;29555;45.350;5.578;2024-02-15T02:34:59;4.88;;;3.40;;
43891;SDS011;29555;45.350;5.578;2024-02-15T02:37:25;8.57;;;3.95;;
43891;SDS011;29555;45.350;5.578;2024-02-15T02:39:51;7.03;;;3.53;;
43891;SDS011;29555;45.350;5.578;2024-02-15T02:42:17;7.07;;;4.57;;
43891;SDS011;29555;45.350;5.578;2024-02-15T02:44:42;6.32;;;3.45;;
43891;SDS011;29555;45.350;5.578;2024-02-15T02:47:08;6.28;;;4.25;;
43891;SDS011;29555;45.350;5.578;2024-02-15T02:49:36;5.30;;;3.28;;
43891;SDS011;29555;45.350;5.578;2024-02-15T02:52:02;6.18;;;3.67;;
43891;SDS011;29555;45.350;5.578;2024-02-15T02:54:28;5.93;;;2.67;;
43891;SDS011;29555;45.350;5.578;2024-02-15T02:56:54;3.70;;;2.67;;
43891;SDS011;29555;45.350;5.578;2024-02-15T02:59:20;4.88;;;3.42;;
43891;SDS011;29555;45.350;5.578;2024-02-15T03:01:45;5.32;;;3.40;;
43891;SDS011;29555;45.350;5.578;2024-02-15T03:04:11;7.40;;;4.80;;
43891;SDS011;29555;45.350;5.578;2024-02-15T03:06:41;5.35;;;3.05;;
43891;SDS011;29555;45.350;5.578;2024-02-15T03:09:07;6.90;;;4.20;;
43891;SDS011;29555;45.350;5.578;2024-02-15T03:11:34;4.07;;;3.20;;
43891;SDS011;29555;45.350;5.578;2024-02-15T03:14:00;3.90;;;3.05;;
43891;SDS011;29555;45.350;5.578;2024-02-15T03:16:29;6.18;;;3.40;;
43891;SDS011;29555;45.350;5.578;2024-02-15T03:18:55;5.68;;;3.00;;
43891;SDS011;29555;45.350;5.578;2024-02-15T03:21:21;10.25;;;3.83;;
43891;SDS011;29555;45.350;5.578;2024-02-15T03:23:46;4.95;;;3.50;;
43891;SDS011;29555;45.350;5.578;2024-02-15T03:26:11;7.57;;;3.25;;
43891;SDS011;29555;45.350;5.578;2024-02-15T03:28:37;8.32;;;3.95;;
43891;SDS011;29555;45.350;5.578;2024-02-15T03:31:03;5.55;;;3.28;;
43891;SDS011;29555;45.350;5.578;2024-02-15T03:33:28;7.25;;;2.72;;
43891;SDS011;29555;45.350;5.578;2024-02-15T03:35:58;5.03;;;3.03;;
43891;SDS011;29555;45.350;5.578;2024-02-15T03:38:28;4.18;;;3.22;;
43891;SDS011;29555;45.350;5.578;2024-02-15T03:40:54;6.22;;;2.78;;
43891;SDS011;29555;45.350;5.578;2024-02-15T03:43:20;4.90;;;3.03;;
43891;SDS011;29555;45.350;5.578;2024-02-15T03:45:46;6.70;;;3.55;;
43891;SDS011;29555;45.350;5.578;2024-02-15T03:48:12;3.83;;;2.78;;
43891;SDS011;29555;45.350;5.578;2024-02-15T03:50:37;3.83;;;3.08;;
43891;SDS011;29555;45.350;5.578;2024-02-15T03:53:03;4.70;;;2.90;;
43891;SDS011;29555;45.350;5.578;2024-02-15T03:55:29;6.93;;;2.42;;
43891;SDS011;29555;45.350;5.578;2024-02-15T03:57:54;4.60;;;2.55;;
43891;SDS011;29555;45.350;5.578;2024-02-15T04:00:20;9.30;;;3.28;;
43891;SDS011;29555;45.350;5.578;2024-02-15T04:02:46;4.85;;;2.15;;
43891;SDS011;29555;45.350;5.578;2024-02-15T04:05:15;2.67;;;2.33;;
43891;SDS011;29555;45.350;5.578;2024-02-15T04:07:40;2.45;;;2.25;;
43891;SDS011;29555;45.350;5.578;2024-02-15T04:10:06;5.22;;;2.53;;
43891;SDS011;29555;45.350;5.578;2024-02-15T04:12:33;5.63;;;2.65;;
43891;SDS011;29555;45.350;5.578;2024-02-15T04:14:58;6.63;;;2.55;;
43891;SDS011;29555;45.350;5.578;2024-02-15T04:17:30;3.40;;;3.08;;
43891;SDS011;29555;45.350;5.578;2024-02-15T04:19:57;4.60;;;2.80;;
43891;SDS011;29555;45.350;5.578;2024-02-15T04:22:23;5.13;;;3.15;;
43891;SDS011;29555;45.350;5.578;2024-02-15T04:24:49;3.65;;;2.28;;
43891;SDS011;29555;45.350;5.578;2024-02-15T04:27:15;8.15;;;2.25;;
43891;SDS011;29555;45.350;5.578;2024-02-15T04:29:40;4.50;;;2.92;;
43891;SDS011;29555;45.350;5.578;2024-02-15T04:32:09;7.38;;;2.28;;
43891;SDS011;29555;45.350;5.578;2024-02-15T04:34:38;3.25;;;2.25;;
43891;SDS011;29555;45.350;5.578;2024-02-15T04:37:06;2.90;;;1.95;;
43891;SDS011;29555;45.350;5.578;2024-02-15T04:39:35;8.38;;;3.00;;
43891;SDS011;29555;45.350;5.578;2024-02-15T04:42:01;4.15;;;1.58;;
43891;SDS011;29555;45.350;5.578;2024-02-15T04:44:37;3.03;;;1.92;;
43891;SDS011;29555;45.350;5.578;2024-02-15T04:47:04;3.17;;;1.63;;
43891;SDS011;29555;45.350;5.578;2024-02-15T04:49:30;4.00;;;1.80;;
43891;SDS011;29555;45.350;5.578;2024-02-15T04:51:56;3.22;;;2.10;;
43891;SDS011;29555;45.350;5.578;2024-02-15T04:54:26;3.20;;;1.70;;
43891;SDS011;29555;45.350;5.578;2024-02-15T04:56:52;1.55;;;1.02;;
43891;SDS011;29555;45.350;5.578;2024-02-15T04:59:19;2.95;;;1.52;;
43891;SDS011;29555;45.350;5.578;2024-02-15T05:01:46;2.30;;;1.58;;
43891;SDS011;29555;45.350;5.578;2024-02-15T05:04:12;4.22;;;1.48;;
43891;SDS011;29555;45.350;5.578;2024-02-15T05:06:38;4.47;;;2.33;;
43891;SDS011;29555;45.350;5.578;2024-02-15T05:09:04;2.58;;;1.88;;
43891;SDS011;29555;45.350;5.578;2024-02-15T05:11:35;2.75;;;1.90;;
43891;SDS011;29555;45.350;5.578;2024-02-15T05:14:02;2.80;;;2.15;;
43891;SDS011;29555;45.350;5.578;2024-02-15T05:16:31;3.15;;;2.10;;
43891;SDS011;29555;45.350;5.578;2024-02-15T05:18:57;5.72;;;2.10;;
43891;SDS011;29555;45.350;5.578;2024-02-15T05:21:22;3.65;;;2.15;;
43891;SDS011;29555;45.350;5.578;2024-02-15T05:23:48;3.83;;;2.33;;
43891;SDS011;29555;45.350;5.578;2024-02-15T05:26:13;3.63;;;2.53;;
43891;SDS011;29555;45.350;5.578;2024-02-15T05:28:41;4.35;;;2.47;;
43891;SDS011;29555;45.350;5.578;2024-02-15T05:31:13;8.13;;;2.42;;
43891;SDS011;29555;45.350;5.578;2024-02-15T05:33:43;3.90;;;2.92;;
43891;SDS011;29555;45.350;5.578;2024-02-15T05:36:15;6.75;;;3.08;;
43891;SDS011;29555;45.350;5.578;2024-02-15T05:38:45;4.85;;;2.13;;
43891;SDS011;29555;45.350;5.578;2024-02-15T05:41:11;4.13;;;2.60;;
43891;SDS011;29555;45.350;5.578;2024-02-15T05:43:38;4.15;;;3.22;;
43891;SDS011;29555;45.350;5.578;2024-02-15T05:46:04;7.57;;;3.80;;
43891;SDS011;29555;45.350;5.578;2024-02-15T05:48:31;7.30;;;4.32;;
43891;SDS011;29555;45.350;5.578;2024-02-15T05:51:00;5.70;;;3.63;;
43891;SDS011;29555;45.350;5.578;2024-02-15T05:53:25;7.18;;;4.72;;
43891;SDS011;29555;45.350;5.578;2024-02-15T05:55:51;8.30;;;4.55;;
43891;SDS011;29555;45.350;5.578;2024-02-15T05:58:17;12.27;;;4.28;;
43891;SDS011;29555;45.350;5.578;2024-02-15T06:00:42;7.18;;;4.07;;
43891;SDS011;29555;45.350;5.578;2024-02-15T06:03:10;7.50;;;4.55;;
43891;SDS011;29555;45.350;5.578;2024-02-15T06:05:38;5.63;;;4.00;;
43891;SDS011;29555;45.350;5.578;2024-02-15T06:08:04;5.60;;;3.88;;
43891;SDS011;29555;45.350;5.578;2024-02-15T06:10:31;12.10;;;5.50;;
43891;SDS011;29555;45.350;5.578;2024-02-15T06:12:56;17.60;;;6.07;;
43891;SDS011;29555;45.350;5.578;2024-02-15T06:15:23;8.55;;;4.25;;
43891;SDS011;29555;45.350;5.578;2024-02-15T06:17:49;8.80;;;5.28;;
43891;SDS011;29555;45.350;5.578;2024-02-15T06:20:14;6.25;;;5.05;;
43891;SDS011;29555;45.350;5.578;2024-02-15T06:22:43;6.72;;;4.72;;
43891;SDS011;29555;45.350;5.578;2024-02-15T06:25:08;9.65;;;4.35;;
43891;SDS011;29555;45.350;5.578;2024-02-15T06:27:35;4.63;;;4.03;;
43891;SDS011;29555;45.350;5.578;2024-02-15T06:30:05;6.80;;;3.90;;
43891;SDS011;29555;45.350;5.578;2024-02-15T06:32:50;6.80;;;4.78;;
43891;SDS011;29555;45.350;5.578;2024-02-15T06:35:34;13.18;;;4.63;;
43891;SDS011;29555;45.350;5.578;2024-02-15T06:38:18;8.27;;;4.57;;
43891;SDS011;29555;45.350;5.578;2024-02-15T06:41:02;4.38;;;3.53;;
43891;SDS011;29555;45.350;5.578;2024-02-15T06:43:28;5.47;;;3.70;;
43891;SDS011;29555;45.350;5.578;2024-02-15T06:45:53;3.63;;;2.70;;
43891;SDS011;29555;45.350;5.578;2024-02-15T06:48:20;7.80;;;3.60;;
43891;SDS011;29555;45.350;5.578;2024-02-15T06:50:48;7.05;;;3.65;;
43891;SDS011;29555;45.350;5.578;2024-02-15T06:53:14;4.80;;;3.28;;
43891;SDS011;29555;45.350;5.578;2024-02-15T06:55:39;7.40;;;3.13;;
43891;SDS011;29555;45.350;5.578;2024-02-15T06:58:05;3.13;;;2.75;;
43891;SDS011;29555;45.350;5.578;2024-02-15T07:00:31;5.88;;;3.35;;
43891;SDS011;29555;45.350;5.578;2024-02-15T07:02:56;5.53;;;2.88;;
43891;SDS011;29555;45.350;5.578;2024-02-15T07:05:22;4.05;;;2.88;;
43891;SDS011;29555;45.350;5.578;2024-02-15T07:07:48;4.10;;;2.97;;
43891;SDS011;29555;45.350;5.578;2024-02-15T07:10:14;10.68;;;4.68;;
43891;SDS011;29555;45.350;5.578;2024-02-15T07:12:41;6.20;;;3.25;;
43891;SDS011;29555;45.350;5.578;2024-02-15T07:15:09;3.35;;;3.05;;
43891;SDS011;29555;45.350;5.578;2024-02-15T07:17:35;3.63;;;2.70;;
43891;SDS011;29555;45.350;5.578;2024-02-15T07:20:02;14.18;;;2.80;;
43891;SDS011;29555;45.350;5.578;2024-02-15T07:22:30;3.08;;;2.78;;
43891;SDS011;29555;45.350;5.578;2024-02-15T07:24:56;7.28;;;3.28;;
43891;SDS011;29555;45.350;5.578;2024-02-15T07:27:22;3.33;;;2.35;;
43891;SDS011;29555;45.350;5.578;2024-02-15T07:29:50;5.72;;;3.50;;
43891;SDS011;29555;45.350;5.578;2024-02-15T07:32:16;5.90;;;3.30;;
43891;SDS011;29555;45.350;5.578;2024-02-15T07:34:42;5.53;;;3.20;;
43891;SDS011;29555;45.350;5.578;2024-02-15T07:37:08;5.20;;;3.72;;
43891;SDS011;29555;45.350;5.578;2024-02-15T07:39:34;121.28;;;57.22;;
43891;SDS011;29555;45.350;5.578;2024-02-15T07:42:01;87.68;;;38.65;;
43891;SDS011;29555;45.350;5.578;2024-02-15T07:44:29;78.72;;;36.72;;
43891;SDS011;29555;45.350;5.578;2024-02-15T07:46:57;44.67;;;23.60;;
43891;SDS011;29555;45.350;5.578;2024-02-15T07:49:25;13.73;;;7.75;;
43891;SDS011;29555;45.350;5.578;2024-02-15T07:51:51;13.18;;;6.07;;
43891;SDS011;29555;45.350;5.578;2024-02-15T07:54:19;10.82;;;5.95;;
43891;SDS011;29555;45.350;5.578;2024-02-15T07:56:48;6.70;;;4.35;;
43891;SDS011;29555;45.350;5.578;2024-02-15T07:59:14;26.15;;;11.15;;
43891;SDS011;29555;45.350;5.578;2024-02-15T08:01:41;49.88;;;22.23;;
43891;SDS011;29555;45.350;5.578;2024-02-15T08:04:08;37.10;;;16.35;;
43891;SDS011;29555;45.350;5.578;2024-02-15T08:06:33;39.03;;;19.58;;
43891;SDS011;29555;45.350;5.578;2024-02-15T08:09:02;18.38;;;9.88;;
43891;SDS011;29555;45.350;5.578;2024-02-15T08:11:30;17.08;;;8.45;;
43891;SDS011;29555;45.350;5.578;2024-02-15T08:13:55;70.30;;;32.10;;
43891;SDS011;29555;45.350;5.578;2024-02-15T08:16:24;49.30;;;22.38;;
43891;SDS011;29555;45.350;5.578;2024-02-15T08:18:53;29.83;;;14.95;;
43891;SDS011;29555;45.350;5.578;2024-02-15T08:23:53;16.30;;;8.95;;
43891;SDS011;29555;45.350;5.578;2024-02-15T08:26:18;10.02;;;6.45;;
43891;SDS011;29555;45.350;5.578;2024-02-15T08:28:43;19.23;;;10.02;;
43891;SDS011;29555;45.350;5.578;2024-02-15T08:31:09;10.90;;;7.03;;
43891;SDS011;29555;45.350;5.578;2024-02-15T08:33:36;12.15;;;6.93;;
43891;SDS011;29555;45.350;5.578;2024-02-15T08:36:03;162.90;;;68.70;;
43891;SDS011;29555;45.350;5.578;2024-02-15T08:38:30;98.70;;;42.25;;
43891;SDS011;29555;45.350;5.578;2024-02-15T08:40:56;61.13;;;27.60;;
43891;SDS011;29555;45.350;5.578;2024-02-15T08:43:21;67.18;;;30.25;;
43891;SDS011;29555;45.350;5.578;2024-02-15T08:45:46;109.13;;;53.13;;
43891;SDS011;29555;45.350;5.578;2024-02-15T08:48:13;35.05;;;18.08;;
43891;SDS011;29555;45.350;5.578;2024-02-15T08:50:39;20.13;;;11.45;;
43891;SDS011;29555;45.350;5.578;2024-02-15T08:53:06;16.95;;;9.82;;
43891;SDS011;29555;45.350;5.578;2024-02-15T08:55:32;11.18;;;6.55;;
43891;SDS011;29555;45.350;5.578;2024-02-15T08:58:00;8.68;;;5.70;;
43891;SDS011;29555;45.350;5.578;2024-02-15T09:00:26;7.97;;;5.47;;
43891;SDS011;29555;45.350;5.578;2024-02-15T09:02:52;24.38;;;12.75;;
43891;SDS011;29555;45.350;5.578;2024-02-15T09:05:18;24.60;;;12.80;;
43891;SDS011;29555;45.350;5.578;2024-02-15T09:07:44;14.80;;;8.20;;
43891;SDS011;29555;45.350;5.578;2024-02-15T09:10:13;10.13;;;6.35;;
43891;SDS011;29555;45.350;5.578;2024-02-15T09:12:40;12.13;;;6.65;;
43891;SDS011;29555;45.350;5.578;2024-02-15T09:15:07;7.18;;;5.28;;
43891;SDS011;29555;45.350;5.578;2024-02-15T09:17:36;10.32;;;4.70;;
43891;SDS011;29555;45.350;5.578;2024-02-15T09:20:11;6.50;;;4.95;;
43891;SDS011;29555;45.350;5.578;2024-02-15T09:22:41;15.75;;;5.80;;
43891;SDS011;29555;45.350;5.578;2024-02-15T09:25:11;13.18;;;5.90;;
43891;SDS011;29555;45.350;5.578;2024-02-15T09:27:38;11.95;;;4.93;;
43891;SDS011;29555;45.350;5.578;2024-02-15T09:30:04;9.98;;;6.30;;
43891;SDS011;29555;45.350;5.578;2024-02-15T09:32:34;7.70;;;5.55;;
43891;SDS011;29555;45.350;5.578;2024-02-15T09:35:00;9.85;;;5.57;;
43891;SDS011;29555;45.350;5.578;2024-02-15T09:37:25;8.98;;;4.68;;
43891;SDS011;29555;45.350;5.578;2024-02-15T09:39:53;8.75;;;5.22;;
43891;SDS011;29555;45.350;5.578;2024-02-15T09:42:19;9.18;;;6.47;;
43891;SDS011;29555;45.350;5.578;2024-02-15T09:44:45;10.23;;;7.88;;
43891;SDS011;29555;45.350;5.578;2024-02-15T09:47:11;16.75;;;5.80;;
43891;SDS011;29555;45.350;5.578;2024-02-15T09:49:38;11.98;;;4.70;;
43891;SDS011;29555;45.350;5.578;2024-02-15T09:52:07;8.63;;;4.18;;
43891;SDS011;29555;45.350;5.578;2024-02-15T09:54:40;4.22;;;3.72;;
43891;SDS011;29555;45.350;5.578;2024-02-15T09:57:08;5.25;;;3.85;;
43891;SDS011;29555;45.350;5.578;2024-02-15T09:59:35;7.13;;;4.00;;
43891;SDS011;29555;45.350;5.578;2024-02-15T10:02:01;13.77;;;8.38;;
43891;SDS011;29555;45.350;5.578;2024-02-15T10:04:27;7.82;;;6.07;;
43891;SDS011;29555;45.350;5.578;2024-02-15T10:06:53;11.18;;;7.68;;
43891;SDS011;29555;45.350;5.578;2024-02-15T10:11:56;9.75;;;5.53;;
43891;SDS011;29555;45.350;5.578;2024-02-15T10:14:23;7.95;;;4.05;;
43891;SDS011;29555;45.350;5.578;2024-02-15T10:16:50;6.57;;;3.90;;
43891;SDS011;29555;45.350;5.578;2024-02-15T10:19:17;7.95;;;4.13;;
43891;SDS011;29555;45.350;5.578;2024-02-15T10:21:43;12.27;;;4.43;;
43891;SDS011;29555;45.350;5.578;2024-02-15T10:24:09;4.20;;;3.35;;
43891;SDS011;29555;45.350;5.578;2024-02-15T10:26:35;4.60;;;2.97;;
43891;SDS011;29555;45.350;5.578;2024-02-15T10:29:04;3.50;;;2.75;;
43891;SDS011;29555;45.350;5.578;2024-02-15T10:31:34;9.48;;;3.97;;
43891;SDS011;29555;45.350;5.578;2024-02-15T10:34:06;6.78;;;3.42;;
43891;SDS011;29555;45.350;5.578;2024-02-15T10:36:33;7.45;;;3.60;;
43891;SDS011;29555;45.350;5.578;2024-02-15T10:39:15;9.15;;;4.13;;
43891;SDS011;29555;45.350;5.578;2024-02-15T10:41:48;4.07;;;3.05;;
43891;SDS011;29555;45.350;5.578;2024-02-15T10:44:15;5.65;;;3.55;;
43891;SDS011;29555;45.350;5.578;2024-02-15T10:46:42;5.05;;;3.72;;
43891;SDS011;29555;45.350;5.578;2024-02-15T10:49:10;4.95;;;3.22;;
43891;SDS011;29555;45.350;5.578;2024-02-15T10:51:36;4.97;;;3.88;;
43891;SDS011;29555;45.350;5.578;2024-02-15T10:54:07;4.65;;;4.13;;
43891;SDS011;29555;45.350;5.578;2024-02-15T10:56:37;8.60;;;4.70;;
43891;SDS011;29555;45.350;5.578;2024-02-15T11:01:40;37.55;;;19.83;;
43891;SDS011;29555;45.350;5.578;2024-02-15T11:04:10;16.67;;;8.93;;
43891;SDS011;29555;45.350;5.578;2024-02-15T11:06:39;8.70;;;4.82;;
43891;SDS011;29555;45.350;5.578;2024-02-15T11:09:07;8.90;;;4.78;;
43891;SDS011;29555;45.350;5.578;2024-02-15T11:11:33;9.77;;;4.47;;
43891;SDS011;29555;45.350;5.578;2024-02-15T11:16:48;9.00;;;4.78;;
43891;SDS011;29555;45.350;5.578;2024-02-15T11:22:08;6.53;;;5.30;;
43891;SDS011;29555;45.350;5.578;2024-02-15T11:24:35;6.25;;;4.60;;
43891;SDS011;29555;45.350;5.578;2024-02-15T11:27:02;9.57;;;4.93;;
43891;SDS011;29555;45.350;5.578;2024-02-15T11:35:07;8.50;;;4.25;;
43891;SDS011;29555;45.350;5.578;2024-02-15T11:40:27;5.20;;;3.65;;
43891;SDS011;29555;45.350;5.578;2024-02-15T11:42:58;6.97;;;3.88;;
43891;SDS011;29555;45.350;5.578;2024-02-15T11:45:24;11.02;;;4.20;;
43891;SDS011;29555;45.350;5.578;2024-02-15T11:47:51;8.20;;;4.35;;
43891;SDS011;29555;45.350;5.578;2024-02-15T11:50:19;10.30;;;6.32;;
43891;SDS011;29555;45.350;5.578;2024-02-15T11:52:46;9.00;;;5.43;;
43891;SDS011;29555;45.350;5.578;2024-02-15T11:55:14;9.60;;;4.47;;
43891;SDS011;29555;45.350;5.578;2024-02-15T11:57:54;10.77;;;4.88;;
43891;SDS011;29555;45.350;5.578;2024-02-15T12:00:35;8.98;;;4.40;;
43891;SDS011;29555;45.350;5.578;2024-02-15T12:03:20;9.93;;;5.55;;
43891;SDS011;29555;45.350;5.578;2024-02-15T12:06:04;6.95;;;4.50;;
43891;SDS011;29555;45.350;5.578;2024-02-15T12:08:51;9.95;;;5.75;;
43891;SDS011;29555;45.350;5.578;2024-02-15T12:11:36;8.98;;;5.15;;
43891;SDS011;29555;45.350;5.578;2024-02-15T12:14:21;9.40;;;5.28;;
43891;SDS011;29555;45.350;5.578;2024-02-15T12:17:11;7.13;;;4.60;;
43891;SDS011;29555;45.350;5.578;2024-02-15T12:19:57;8.35;;;4.82;;
43891;SDS011;29555;45.350;5.578;2024-02-15T12:22:40;10.00;;;5.03;;
43891;SDS011;29555;45.350;5.578;2024-02-15T12:25:13;8.85;;;4.28;;
43891;SDS011;29555;45.350;5.578;2024-02-15T12:27:46;5.65;;;4.10;;
43891;SDS011;29555;45.350;5.578;2024-02-15T12:30:17;6.03;;;3.92;;
43891;SDS011;29555;45.350;5.578;2024-02-15T12:32:50;12.18;;;5.80;;
43891;SDS011;29555;45.350;5.578;2024-02-15T12:35:17;8.13;;;5.13;;
43891;SDS011;29555;45.350;5.578;2024-02-15T12:37:45;13.90;;;4.90;;
43891;SDS011;29555;45.350;5.578;2024-02-15T12:40:15;6.65;;;4.30;;
43891;SDS011;29555;45.350;5.578;2024-02-15T12:42:44;9.07;;;4.88;;
43891;SDS011;29555;45.350;5.578;2024-02-15T12:45:15;14.23;;;5.18;;
43891;SDS011;29555;45.350;5.578;2024-02-15T12:47:50;27.63;;;12.45;;
43891;SDS011;29555;45.350;5.578;2024-02-15T12:50:16;10.82;;;6.30;;
43891;SDS011;29555;45.350;5.578;2024-02-15T12:52:44;6.25;;;3.60;;
43891;SDS011;29555;45.350;5.578;2024-02-15T12:55:16;9.68;;;6.55;;
43891;SDS011;29555;45.350;5.578;2024-02-15T12:57:45;6.82;;;4.90;;
43891;SDS011;29555;45.350;5.578;2024-02-15T13:00:14;5.80;;;4.38;;
43891;SDS011;29555;45.350;5.578;2024-02-15T13:02:46;6.10;;;3.38;;
43891;SDS011;29555;45.350;5.578;2024-02-15T13:05:16;5.25;;;3.88;;
43891;SDS011;29555;45.350;5.578;2024-02-15T13:07:51;4.10;;;2.83;;
43891;SDS011;29555;45.350;5.578;2024-02-15T13:10:18;7.95;;;3.83;;
43891;SDS011;29555;45.350;5.578;2024-02-15T13:12:44;7.97;;;3.88;;
43891;SDS011;29555;45.350;5.578;2024-02-15T13:15:13;5.43;;;3.15;;
43891;SDS011;29555;45.350;5.578;2024-02-15T13:17:40;7.00;;;3.78;;
43891;SDS011;29555;45.350;5.578;2024-02-15T13:20:09;6.05;;;3.88;;
43891;SDS011;29555;45.350;5.578;2024-02-15T13:22:42;6.88;;;3.67;;
43891;SDS011;29555;45.350;5.578;2024-02-15T13:25:09;4.65;;;3.75;;
43891;SDS011;29555;45.350;5.578;2024-02-15T13:27:35;4.97;;;3.60;;
43891;SDS011;29555;45.350;5.578;2024-02-15T13:30:03;6.80;;;3.17;;
43891;SDS011;29555;45.350;5.578;2024-02-15T13:35:02;4.90;;;3.20;;
43891;SDS011;29555;45.350;5.578;2024-02-15T13:37:39;4.10;;;3.70;;
43891;SDS011;29555;45.350;5.578;2024-02-15T13:40:11;4.13;;;3.17;;
43891;SDS011;29555;45.350;5.578;2024-02-15T13:42:40;5.77;;;4.63;;
43891;SDS011;29555;45.350;5.578;2024-02-15T13:45:14;9.30;;;3.78;;
43891;SDS011;29555;45.350;5.578;2024-02-15T13:47:43;6.32;;;3.00;;
43891;SDS011;29555;45.350;5.578;2024-02-15T13:50:11;9.70;;;2.60;;
43891;SDS011;29555;45.350;5.578;2024-02-15T13:52:39;5.28;;;3.10;;
43891;SDS011;29555;45.350;5.578;2024-02-15T13:55:06;3.65;;;3.13;;
43891;SDS011;29555;45.350;5.578;2024-02-15T13:57:33;3.83;;;3.45;;
43891;SDS011;29555;45.350;5.578;2024-02-15T13:59:58;9.90;;;3.72;;
43891;SDS011;29555;45.350;5.578;2024-02-15T14:02:24;14.00;;;3.42;;
43891;SDS011;29555;45.350;5.578;2024-02-15T15:19:30;3.05;;;2.30;;
43891;SDS011;29555;45.350;5.578;2024-02-15T15:21:56;14.45;;;3.65;;
43891;SDS011;29555;45.350;5.578;2024-02-15T15:24:21;5.15;;;3.20;;
43891;SDS011;29555;45.350;5.578;2024-02-15T15:26:47;3.30;;;2.20;;
43891;SDS011;29555;45.350;5.578;2024-02-15T15:29:12;4.72;;;2.80;;
43891;SDS011;29555;45.350;5.578;2024-02-15T15:31:39;4.90;;;2.63;;
43891;SDS011;29555;45.350;5.578;2024-02-15T15:34:04;4.00;;;2.03;;
43891;SDS011;29555;45.350;5.578;2024-02-15T15:36:29;5.80;;;2.65;;
43891;SDS011;29555;45.350;5.578;2024-02-15T15:38:55;1.65;;;1.55;;
43891;SDS011;29555;45.350;5.578;2024-02-15T15:41:21;11.35;;;2.92;;
43891;SDS011;29555;45.350;5.578;2024-02-15T15:43:47;2.80;;;2.42;;
43891;SDS011;29555;45.350;5.578;2024-02-15T15:46:15;4.25;;;2.42;;
43891;SDS011;29555;45.350;5.578;2024-02-15T15:48:41;6.40;;;2.65;;
43891;SDS011;29555;45.350;5.578;2024-02-15T15:51:08;3.08;;;2.78;;
43891;SDS011;29555;45.350;5.578;2024-02-15T15:53:34;5.82;;;2.58;;
43891;SDS011;29555;45.350;5.578;2024-02-15T15:56:00;5.63;;;2.95;;
43891;SDS011;29555;45.350;5.578;2024-02-15T15:58:25;9.75;;;3.35;;
43891;SDS011;29555;45.350;5.578;2024-02-15T16:00:50;6.28;;;3.05;;
43891;SDS011;29555;45.350;5.578;2024-02-15T16:03:16;4.55;;;1.77;;
43891;SDS011;29555;45.350;5.578;2024-02-15T16:05:41;11.30;;;1.83;;
43891;SDS011;29555;45.350;5.578;2024-02-15T16:08:07;3.00;;;2.60;;
43891;SDS011;29555;45.350;5.578;2024-02-15T16:10:32;7.35;;;2.38;;
43891;SDS011;29555;45.350;5.578;2024-02-15T16:12:59;6.43;;;3.90;;
43891;SDS011;29555;45.350;5.578;2024-02-15T16:15:26;3.63;;;2.35;;
43891;SDS011;29555;45.350;5.578;2024-02-15T16:17:51;9.38;;;4.78;;
43891;SDS011;29555;45.350;5.578;2024-02-15T16:20:17;8.70;;;5.18;;
43891;SDS011;29555;45.350;5.578;2024-02-15T16:22:43;11.80;;;6.32;;
43891;SDS011;29555;45.350;5.578;2024-02-15T16:25:09;8.52;;;5.60;;
43891;SDS011;29555;45.350;5.578;2024-02-15T16:27:36;10.15;;;6.70;;